createdAt,value
2017-03-11T00:00:09.492Z,3.28
2017-03-11T00:01:19.836Z,3.26
2017-03-11T00:02:30.562Z,3.25
2017-03-11T00:03:40.901Z,3.28
2017-03-11T00:04:50.192Z,3.18
2017-03-11T00:06:00.562Z,3.22
2017-03-11T00:07:10.535Z,3.19
2017-03-11T00:08:21.124Z,3.22
2017-03-11T00:09:31.048Z,3.25
2017-03-11T00:10:41.370Z,3.21
2017-03-11T00:11:51.729Z,3.24
2017-03-11T00:13:01.652Z,3.29
2017-03-11T00:14:11.864Z,3.28
2017-03-11T00:15:22.260Z,3.29
2017-03-11T00:16:32.179Z,3.29
2017-03-11T00:17:42.494Z,3.28
2017-03-11T00:18:52.854Z,3.37
2017-03-11T00:20:03.105Z,3.28
2017-03-11T00:21:13.446Z,3.24
2017-03-11T00:22:23.947Z,3.25
2017-03-11T00:23:34.407Z,3.21
2017-03-11T00:24:44.750Z,3.28
2017-03-11T00:25:54.927Z,3.21
2017-03-11T00:27:05.239Z,3.19
2017-03-11T00:28:15.530Z,3.16
2017-03-11T00:29:25.437Z,3.18
2017-03-11T00:30:35.424Z,3.16
2017-03-11T00:31:45.677Z,3.13
2017-03-11T00:32:56.039Z,3.13
2017-03-11T00:34:05.963Z,3.1
2017-03-11T00:35:16.416Z,3.02
2017-03-11T00:36:26.813Z,3.06
2017-03-11T00:37:36.973Z,3.04
2017-03-11T00:38:46.534Z,3.06
2017-03-11T00:39:56.867Z,3.11
2017-03-11T00:41:07.197Z,3.16
2017-03-11T00:42:17.096Z,3.25
2017-03-11T00:43:27.723Z,3.22
2017-03-11T00:44:37.226Z,3.15
2017-03-11T00:45:47.138Z,3.15
2017-03-11T00:46:57.460Z,3.04
2017-03-11T00:48:07.593Z,3.1
2017-03-11T00:49:18.245Z,3.02
2017-03-11T00:50:28.573Z,3.11
2017-03-11T00:51:39.013Z,2.92
2017-03-11T00:52:48.910Z,2.88
2017-03-11T00:53:59.223Z,2.92
2017-03-11T00:55:09.810Z,2.91
2017-03-11T00:56:20.174Z,2.92
2017-03-11T00:57:30.107Z,2.94
2017-03-11T00:58:40.446Z,2.88
2017-03-11T00:59:50.796Z,2.99
2017-03-11T01:01:01.355Z,2.89
2017-03-11T01:02:11.279Z,2.97
2017-03-11T01:03:21.617Z,2.85
2017-03-11T01:04:31.774Z,2.91
2017-03-11T01:05:41.766Z,2.84
2017-03-11T01:06:52.317Z,2.87
2017-03-11T01:08:01.934Z,2.85
2017-03-11T01:09:12.306Z,2.82
2017-03-11T01:10:22.518Z,2.85
2017-03-11T01:11:32.809Z,2.84
2017-03-11T01:12:43.039Z,2.77
2017-03-11T01:13:52.601Z,2.78
2017-03-11T01:15:02.948Z,2.73
2017-03-11T01:16:12.942Z,2.71
2017-03-11T01:17:23.273Z,2.69
2017-03-11T01:18:33.857Z,2.64
2017-03-11T01:19:43.821Z,2.66
2017-03-11T01:20:53.420Z,2.7
2017-03-11T01:22:03.784Z,2.63
2017-03-11T01:23:14.120Z,2.64
2017-03-11T01:24:24.692Z,2.67
2017-03-11T01:25:34.626Z,2.59
2017-03-11T01:26:44.958Z,2.66
2017-03-11T01:27:55.258Z,2.69
2017-03-11T01:29:05.228Z,2.7
2017-03-11T01:30:15.801Z,2.73
2017-03-11T01:31:26.157Z,2.73
2017-03-11T01:32:36.620Z,2.71
2017-03-11T01:33:46.940Z,2.7
2017-03-11T01:34:56.896Z,2.71
2017-03-11T01:36:07.489Z,2.78
2017-03-11T01:37:17.385Z,2.74
2017-03-11T01:38:27.787Z,2.81
2017-03-11T01:39:38.137Z,2.91
2017-03-11T01:40:48.445Z,2.88
2017-03-11T01:41:59.031Z,2.89
2017-03-11T01:43:09.025Z,2.94
2017-03-11T01:44:18.986Z,2.92
2017-03-11T01:45:28.904Z,2.92
2017-03-11T01:46:38.875Z,3.08
2017-03-11T01:47:49.034Z,3.04
2017-03-11T01:48:59.368Z,3.08
2017-03-11T01:50:09.752Z,3.07
2017-03-11T01:51:19.634Z,3.08
2017-03-11T01:52:29.998Z,3.22
2017-03-11T01:53:40.725Z,3.21
2017-03-11T01:54:51.044Z,3.24
2017-03-11T01:56:00.932Z,3.25
2017-03-11T01:57:10.861Z,3.19
2017-03-11T01:58:20.910Z,3.21
2017-03-11T01:59:31.509Z,3.22
2017-03-11T02:00:41.821Z,3.24
2017-03-11T02:01:51.726Z,3.24
2017-03-11T02:03:02.062Z,3.18
2017-03-11T02:04:12.006Z,3.16
2017-03-11T02:05:22.608Z,3.13
2017-03-11T02:06:33.139Z,3.11
2017-03-11T02:07:43.498Z,3.1
2017-03-11T02:08:53.428Z,3
2017-03-11T02:10:03.385Z,3.11
2017-03-11T02:11:13.556Z,3.1
2017-03-11T02:12:23.171Z,3.02
2017-03-11T02:13:33.556Z,3.04
2017-03-11T02:14:43.564Z,2.97
2017-03-11T02:15:53.858Z,3.04
2017-03-11T02:17:04.500Z,3
2017-03-11T02:18:14.847Z,3
2017-03-11T02:19:24.781Z,2.96
2017-03-11T02:20:34.711Z,2.94
2017-03-11T02:21:45.054Z,2.97
2017-03-11T02:22:55.609Z,3.02
2017-03-11T02:24:05.914Z,3.02
2017-03-11T02:25:16.403Z,2.92
2017-03-11T02:26:26.722Z,2.92
2017-03-11T02:27:37.119Z,2.96
2017-03-11T02:28:47.845Z,2.92
2017-03-11T02:29:58.242Z,2.92
2017-03-11T02:31:08.563Z,2.82
2017-03-11T02:32:18.487Z,2.92
2017-03-11T02:33:28.786Z,2.84
2017-03-11T02:34:39.341Z,2.85
2017-03-11T02:35:49.716Z,2.89
2017-03-11T02:37:00.040Z,2.84
2017-03-11T02:38:10.404Z,2.84
2017-03-11T02:39:20.701Z,2.74
2017-03-11T02:40:31.345Z,2.85
2017-03-11T02:41:41.411Z,2.81
2017-03-11T02:42:51.729Z,2.82
2017-03-11T02:44:02.191Z,2.79
2017-03-11T02:45:12.092Z,2.78
2017-03-11T02:46:22.452Z,2.77
2017-03-11T02:47:32.812Z,2.85
2017-03-11T02:48:42.702Z,2.87
2017-03-11T02:49:52.237Z,2.84
2017-03-11T02:51:02.593Z,3
2017-03-11T02:52:12.770Z,2.92
2017-03-11T02:53:23.091Z,2.96
2017-03-11T02:54:33.405Z,2.94
2017-03-11T02:55:43.706Z,2.96
2017-03-11T02:56:54.069Z,2.99
2017-03-11T02:58:04.276Z,3.1
2017-03-11T02:59:14.628Z,3.08
2017-03-11T03:00:24.965Z,3.19
2017-03-11T03:01:35.286Z,3.15
2017-03-11T03:02:45.683Z,3.24
2017-03-11T03:03:56.332Z,3.16
2017-03-11T03:05:06.267Z,3.19
2017-03-11T03:06:16.694Z,3.19
2017-03-11T03:07:27.085Z,3.13
2017-03-11T03:08:37.144Z,3.16
2017-03-11T03:09:47.722Z,3.1
2017-03-11T03:10:58.071Z,3.22
2017-03-11T03:12:08.414Z,3.15
2017-03-11T03:13:18.398Z,3.22
2017-03-11T03:14:28.360Z,3.26
2017-03-11T03:15:38.910Z,3.22
2017-03-11T03:16:48.827Z,3.28
2017-03-11T03:17:58.797Z,3.16
2017-03-11T03:19:09.125Z,3.24
2017-03-11T03:20:19.013Z,3.07
2017-03-11T03:21:29.748Z,3.07
2017-03-11T03:22:40.118Z,3.06
2017-03-11T03:23:50.467Z,3.06
2017-03-11T03:25:00.802Z,3.06
2017-03-11T03:26:11.107Z,3.11
2017-03-11T03:27:21.867Z,3.19
2017-03-11T03:28:32.185Z,3.18
2017-03-11T03:29:42.282Z,3.19
2017-03-11T03:30:52.658Z,3.15
2017-03-11T03:32:03.118Z,3.13
2017-03-11T03:33:13.699Z,3.19
2017-03-11T03:34:23.635Z,3.18
2017-03-11T03:35:34.028Z,3.21
2017-03-11T03:36:43.224Z,3.11
2017-03-11T03:37:53.138Z,3.22
2017-03-11T03:39:03.750Z,3.15
2017-03-11T03:40:14.151Z,3.1
2017-03-11T03:41:24.034Z,3.07
2017-03-11T03:42:34.492Z,3.08
2017-03-11T03:43:44.425Z,3.06
2017-03-11T03:44:55.155Z,3.07
2017-03-11T03:46:05.463Z,3.11
2017-03-11T03:47:16.143Z,3.06
2017-03-11T03:48:26.495Z,3.13
2017-03-11T03:49:36.405Z,3.06
2017-03-11T03:50:46.565Z,3.08
2017-03-11T03:51:56.546Z,3.08
2017-03-11T03:53:06.908Z,3.08
2017-03-11T03:54:17.334Z,3.04
2017-03-11T03:55:27.255Z,3.1
2017-03-11T03:56:37.949Z,3.08
2017-03-11T03:57:48.263Z,3.1
2017-03-11T03:58:58.580Z,2.97
2017-03-11T04:00:08.962Z,3.06
2017-03-11T04:01:19.392Z,2.96
2017-03-11T04:02:30.012Z,2.91
2017-03-11T04:03:40.327Z,2.91
2017-03-11T04:04:50.279Z,2.89
2017-03-11T04:05:59.790Z,2.91
2017-03-11T04:07:10.107Z,2.96
2017-03-11T04:08:20.363Z,3.08
2017-03-11T04:09:30.707Z,2.94
2017-03-11T04:10:40.670Z,2.94
2017-03-11T04:11:51.110Z,2.94
2017-03-11T04:13:01.080Z,2.96
2017-03-11T04:14:11.814Z,2.96
2017-03-11T04:15:22.164Z,3.07
2017-03-11T04:16:32.479Z,3
2017-03-11T04:17:42.850Z,3.06
2017-03-11T04:18:53.176Z,3.1
2017-03-11T04:20:03.023Z,3.02
2017-03-11T04:21:12.945Z,3.02
2017-03-11T04:22:23.020Z,3.11
2017-03-11T04:23:33.332Z,3.04
2017-03-11T04:24:43.653Z,3.13
2017-03-11T04:25:54.251Z,3.04
2017-03-11T04:27:04.553Z,3.08
2017-03-11T04:28:14.506Z,3.08
2017-03-11T04:29:24.474Z,3.07
2017-03-11T04:30:34.431Z,3.1
2017-03-11T04:31:44.604Z,3.08
2017-03-11T04:32:54.541Z,3.06
2017-03-11T04:34:04.849Z,3.07
2017-03-11T04:35:14.781Z,3
2017-03-11T04:36:24.670Z,3
2017-03-11T04:37:35.309Z,3.02
2017-03-11T04:38:45.592Z,3
2017-03-11T04:39:55.965Z,2.97
2017-03-11T04:41:05.911Z,2.97
2017-03-11T04:42:15.798Z,2.89
2017-03-11T04:43:26.415Z,2.94
2017-03-11T04:44:36.747Z,2.94
2017-03-11T04:45:46.709Z,2.92
2017-03-11T04:46:57.031Z,3.04
2017-03-11T04:48:07.478Z,3.04
2017-03-11T04:49:18.045Z,3.04
2017-03-11T04:50:28.622Z,3
2017-03-11T04:51:38.535Z,3.08
2017-03-11T04:52:48.885Z,3.07
2017-03-11T04:53:59.063Z,3
2017-03-11T04:55:09.227Z,2.97
2017-03-11T04:56:19.525Z,3.08
2017-03-11T04:57:29.504Z,3.02
2017-03-11T04:58:39.218Z,3.07
2017-03-11T04:59:49.593Z,3.04
2017-03-11T05:00:59.756Z,3.06
2017-03-11T05:02:10.065Z,3.11
2017-03-11T05:03:20.433Z,3.11
2017-03-11T05:04:30.452Z,3.08
2017-03-11T05:05:40.530Z,3.11
2017-03-11T05:06:50.692Z,3.15
2017-03-11T05:08:01.050Z,3.08
2017-03-11T05:09:11.015Z,3.1
2017-03-11T05:10:20.962Z,3.08
2017-03-11T05:11:31.279Z,3.08
2017-03-11T05:12:41.879Z,3.1
2017-03-11T05:13:52.212Z,3.04
2017-03-11T05:15:02.198Z,3.04
2017-03-11T05:16:12.125Z,3.04
2017-03-11T05:17:22.429Z,2.97
2017-03-11T05:18:32.983Z,3.02
2017-03-11T05:19:42.889Z,3.08
2017-03-11T05:20:52.818Z,3.1
2017-03-11T05:22:02.460Z,3.06
2017-03-11T05:23:12.366Z,3.06
2017-03-11T05:24:22.150Z,3.07
2017-03-11T05:25:32.445Z,3.11
2017-03-11T05:26:42.424Z,3.22
2017-03-11T05:27:52.446Z,3.16
2017-03-11T05:29:02.887Z,3.08
2017-03-11T05:30:13.449Z,3.11
2017-03-11T05:31:23.826Z,3.07
2017-03-11T05:32:34.156Z,3.08
2017-03-11T05:33:44.524Z,3.08
2017-03-11T05:34:54.433Z,3.11
2017-03-11T05:36:05.042Z,3.1
2017-03-11T05:37:15.035Z,3.15
2017-03-11T05:38:24.992Z,3.21
2017-03-11T05:39:35.327Z,3.22
2017-03-11T05:40:45.663Z,3.19
2017-03-11T05:41:56.266Z,3.16
2017-03-11T05:43:06.561Z,3.13
2017-03-11T05:44:16.455Z,3.16
2017-03-11T05:45:26.629Z,3.25
2017-03-11T05:46:36.536Z,3.16
2017-03-11T05:47:47.151Z,3.25
2017-03-11T05:48:57.586Z,3.26
2017-03-11T05:50:07.959Z,3.22
2017-03-11T05:51:18.268Z,3.22
2017-03-11T05:52:28.642Z,3.22
2017-03-11T05:53:38.873Z,3.19
2017-03-11T05:54:49.242Z,3.21
2017-03-11T05:55:59.957Z,3.18
2017-03-11T05:57:10.311Z,3.15
2017-03-11T05:58:20.231Z,3.15
2017-03-11T05:59:30.412Z,3.15
2017-03-11T06:00:40.713Z,3.26
2017-03-11T06:01:50.607Z,3.22
2017-03-11T06:03:00.590Z,3.29
2017-03-11T06:04:10.500Z,3.28
2017-03-11T06:05:20.698Z,3.24
2017-03-11T06:06:30.629Z,3.22
2017-03-11T06:07:40.553Z,3.21
2017-03-11T06:08:50.908Z,3.24
2017-03-11T06:10:00.411Z,3.28
2017-03-11T06:11:11.006Z,3.25
2017-03-11T06:12:21.378Z,3.22
2017-03-11T06:13:31.691Z,3.25
2017-03-11T06:14:41.681Z,3.21
2017-03-11T06:15:51.587Z,3.25
2017-03-11T06:17:02.166Z,3.31
2017-03-11T06:18:12.539Z,3.22
2017-03-11T06:19:22.912Z,3.24
2017-03-11T06:20:33.243Z,3.28
2017-03-11T06:21:43.565Z,3.39
2017-03-11T06:22:53.794Z,3.36
2017-03-11T06:24:04.174Z,3.42
2017-03-11T06:25:14.071Z,3.43
2017-03-11T06:26:23.990Z,3.42
2017-03-11T06:27:34.299Z,3.34
2017-03-11T06:28:43.653Z,3.44
2017-03-11T06:29:54.060Z,3.4
2017-03-11T06:31:04.409Z,3.46
2017-03-11T06:32:14.724Z,3.4
2017-03-11T06:33:25.098Z,3.37
2017-03-11T06:34:35.671Z,3.46
2017-03-11T06:35:45.605Z,3.52
2017-03-11T06:36:55.689Z,3.49
2017-03-11T06:38:06.007Z,3.5
2017-03-11T06:39:15.946Z,3.57
2017-03-11T06:40:26.119Z,3.57
2017-03-11T06:41:36.454Z,3.59
2017-03-11T06:42:46.777Z,3.55
2017-03-11T06:43:57.182Z,3.58
2017-03-11T06:45:07.560Z,3.54
2017-03-11T06:46:18.142Z,3.55
2017-03-11T06:47:28.507Z,3.5
2017-03-11T06:48:38.890Z,3.61
2017-03-11T06:49:48.832Z,3.58
2017-03-11T06:50:59.212Z,3.61
2017-03-11T06:52:09.783Z,3.55
2017-03-11T06:53:19.778Z,3.52
2017-03-11T06:54:30.100Z,3.62
2017-03-11T06:55:39.623Z,3.59
2017-03-11T06:56:49.648Z,3.55
2017-03-11T06:58:00.235Z,3.58
2017-03-11T06:59:10.716Z,3.59
2017-03-11T07:00:20.921Z,3.72
2017-03-11T07:01:30.862Z,3.76
2017-03-11T07:02:41.232Z,3.73
2017-03-11T07:03:51.918Z,3.72
2017-03-11T07:05:02.265Z,3.67
2017-03-11T07:06:12.264Z,3.64
2017-03-11T07:07:22.193Z,3.67
2017-03-11T07:08:32.583Z,3.67
2017-03-11T07:09:43.236Z,3.73
2017-03-11T07:10:53.596Z,3.73
2017-03-11T07:12:03.916Z,3.69
2017-03-11T07:13:14.236Z,3.82
2017-03-11T07:14:24.568Z,3.8
2017-03-11T07:15:35.119Z,3.85
2017-03-11T07:16:45.419Z,3.93
2017-03-11T07:17:55.797Z,3.93
2017-03-11T07:19:05.721Z,3.86
2017-03-11T07:20:15.610Z,3.91
2017-03-11T07:21:26.185Z,3.98
2017-03-11T07:22:36.691Z,4.05
2017-03-11T07:23:47.066Z,4.16
2017-03-11T07:24:57.396Z,4.19
2017-03-11T07:26:07.754Z,4.34
2017-03-11T07:27:17.985Z,4.36
2017-03-11T07:28:28.391Z,4.43
2017-03-11T07:29:38.701Z,4.37
2017-03-11T07:30:49.090Z,4.38
2017-03-11T07:31:59.459Z,4.41
2017-03-11T07:33:10.117Z,4.5
2017-03-11T07:34:20.544Z,4.62
2017-03-11T07:35:30.950Z,4.68
2017-03-11T07:36:41.269Z,4.77
2017-03-11T07:37:51.601Z,4.83
2017-03-11T07:39:02.158Z,4.96
2017-03-11T07:40:11.656Z,5.04
2017-03-11T07:41:21.991Z,5.16
2017-03-11T07:42:32.422Z,5.22
2017-03-11T07:43:42.787Z,5.25
2017-03-11T07:44:53.384Z,5.36
2017-03-11T07:46:03.771Z,5.4
2017-03-11T07:47:14.325Z,5.4
2017-03-11T07:48:24.673Z,5.59
2017-03-11T07:49:35.097Z,5.68
2017-03-11T07:50:45.673Z,5.88
2017-03-11T07:51:56.029Z,5.83
2017-03-11T07:53:05.949Z,6.05
2017-03-11T07:54:15.453Z,6.19
2017-03-11T07:55:25.578Z,6.35
2017-03-11T07:56:36.195Z,6.44
2017-03-11T07:57:46.586Z,6.63
2017-03-11T07:58:57.033Z,6.95
2017-03-11T08:00:07.821Z,7.64
2017-03-11T08:01:18.894Z,7.84
2017-03-11T08:02:30.206Z,8.06
2017-03-11T08:03:40.881Z,8.06
2017-03-11T08:04:52.171Z,8.23
2017-03-11T08:06:03.412Z,8.42
2017-03-11T08:07:14.459Z,8.5
2017-03-11T08:08:25.435Z,8.68
2017-03-11T08:09:36.522Z,8.79
2017-03-11T08:10:46.861Z,8.93
2017-03-11T08:11:57.261Z,8.9
2017-03-11T08:13:07.650Z,9.02
2017-03-11T08:14:18.231Z,9
2017-03-11T08:15:28.569Z,8.86
2017-03-11T08:16:38.925Z,8.8
2017-03-11T08:17:48.818Z,8.58
2017-03-11T08:18:59.121Z,8.63
2017-03-11T08:20:09.291Z,8.55
2017-03-11T08:21:19.702Z,8.57
2017-03-11T08:22:30.184Z,8.52
2017-03-11T08:23:40.568Z,8.42
2017-03-11T08:24:50.884Z,8.31
2017-03-11T08:26:01.445Z,8.28
2017-03-11T08:27:10.526Z,8.32
2017-03-11T08:28:20.024Z,8.21
2017-03-11T08:29:30.323Z,8.23
2017-03-11T08:30:40.698Z,8.12
2017-03-11T08:31:51.373Z,7.99
2017-03-11T08:33:01.293Z,8.03
2017-03-11T08:34:11.304Z,7.82
2017-03-11T08:35:21.184Z,7.8
2017-03-11T08:36:31.103Z,7.76
2017-03-11T08:37:41.318Z,7.72
2017-03-11T08:38:51.612Z,7.61
2017-03-11T08:40:01.923Z,7.59
2017-03-11T08:41:12.204Z,7.56
2017-03-11T08:42:22.083Z,7.41
2017-03-11T08:43:32.623Z,7.37
2017-03-11T08:44:42.972Z,7.21
2017-03-11T08:45:52.991Z,7.22
2017-03-11T08:47:03.310Z,7.21
2017-03-11T08:48:13.721Z,7.21
2017-03-11T08:49:24.362Z,7.22
2017-03-11T08:50:33.423Z,7.14
2017-03-11T08:51:43.845Z,7
2017-03-11T08:52:53.869Z,6.93
2017-03-11T08:54:04.149Z,6.85
2017-03-11T08:55:14.708Z,6.82
2017-03-11T08:56:25.139Z,6.74
2017-03-11T08:57:35.598Z,6.77
2017-03-11T08:58:45.886Z,6.78
2017-03-11T08:59:55.042Z,6.72
2017-03-11T09:01:05.266Z,6.78
2017-03-11T09:02:15.199Z,6.78
2017-03-11T09:03:25.086Z,6.75
2017-03-11T09:04:35.449Z,6.82
2017-03-11T09:05:45.765Z,6.82
2017-03-11T09:06:55.935Z,6.79
2017-03-11T09:08:06.223Z,6.84
2017-03-11T09:09:16.118Z,6.81
2017-03-11T09:10:26.505Z,6.93
2017-03-11T09:11:36.416Z,6.99
2017-03-11T09:12:47.124Z,7.11
2017-03-11T09:13:57.435Z,7.14
2017-03-11T09:15:07.733Z,7.33
2017-03-11T09:16:17.688Z,7.43
2017-03-11T09:17:27.981Z,7.48
2017-03-11T09:18:38.130Z,7.54
2017-03-11T09:19:48.452Z,7.54
2017-03-11T09:20:58.381Z,7.7
2017-03-11T09:22:08.360Z,7.7
2017-03-11T09:23:18.257Z,7.7
2017-03-11T09:24:28.898Z,7.7
2017-03-11T09:25:38.777Z,7.67
2017-03-11T09:26:49.100Z,7.76
2017-03-11T09:27:59.100Z,7.67
2017-03-11T09:29:09.406Z,7.76
2017-03-11T09:30:19.568Z,7.73
2017-03-11T09:31:29.845Z,7.79
2017-03-11T09:32:40.180Z,7.77
2017-03-11T09:33:50.111Z,7.69
2017-03-11T09:35:00.447Z,7.7
2017-03-11T09:36:10.585Z,7.66
2017-03-11T09:37:20.501Z,7.62
2017-03-11T09:38:30.825Z,7.58
2017-03-11T09:39:40.777Z,7.67
2017-03-11T09:40:50.698Z,7.67
2017-03-11T09:42:01.253Z,7.62
2017-03-11T09:43:11.516Z,7.64
2017-03-11T09:44:21.815Z,7.66
2017-03-11T09:45:32.172Z,7.64
2017-03-11T09:46:42.099Z,7.76
2017-03-11T09:47:52.279Z,7.76
2017-03-11T09:49:02.621Z,7.76
2017-03-11T09:50:12.908Z,7.82
2017-03-11T09:51:22.436Z,7.77
2017-03-11T09:52:32.797Z,7.82
2017-03-11T09:53:43.023Z,7.76
2017-03-11T09:54:53.375Z,7.72
2017-03-11T09:56:03.793Z,7.79
2017-03-11T09:57:14.178Z,7.8
2017-03-11T09:58:24.479Z,7.85
2017-03-11T09:59:35.045Z,7.8
2017-03-11T10:00:44.940Z,7.9
2017-03-11T10:01:55.243Z,7.85
2017-03-11T10:03:05.156Z,8.03
2017-03-11T10:04:15.510Z,8.09
2017-03-11T10:05:26.231Z,8.03
2017-03-11T10:06:36.600Z,7.99
2017-03-11T10:07:46.921Z,7.99
2017-03-11T10:08:57.278Z,7.94
2017-03-11T10:10:07.163Z,8.02
2017-03-11T10:11:17.773Z,8.05
2017-03-11T10:12:28.092Z,8.07
2017-03-11T10:13:38.037Z,8.03
2017-03-11T10:14:48.379Z,8.16
2017-03-11T10:15:58.684Z,8.2
2017-03-11T10:17:08.825Z,8.25
2017-03-11T10:18:19.115Z,8.28
2017-03-11T10:19:29.448Z,8.39
2017-03-11T10:20:39.360Z,8.37
2017-03-11T10:21:49.251Z,8.43
2017-03-11T10:22:59.869Z,8.49
2017-03-11T10:24:10.327Z,8.57
2017-03-11T10:25:20.644Z,8.61
2017-03-11T10:26:31.037Z,8.61
2017-03-11T10:27:41.324Z,8.57
2017-03-11T10:28:51.913Z,8.57
2017-03-11T10:30:02.228Z,8.48
2017-03-11T10:31:12.532Z,8.53
2017-03-11T10:32:22.421Z,8.48
2017-03-11T10:33:31.941Z,8.42
2017-03-11T10:34:42.101Z,8.45
2017-03-11T10:35:51.986Z,8.4
2017-03-11T10:37:02.300Z,8.43
2017-03-11T10:38:12.202Z,8.5
2017-03-11T10:39:22.130Z,8.48
2017-03-11T10:40:32.800Z,8.5
2017-03-11T10:41:42.698Z,8.53
2017-03-11T10:42:53.040Z,8.49
2017-03-11T10:44:03.338Z,8.48
2017-03-11T10:45:13.618Z,8.52
2017-03-11T10:46:23.774Z,8.58
2017-03-11T10:47:33.710Z,8.58
2017-03-11T10:48:44.159Z,8.63
2017-03-11T10:49:54.068Z,8.7
2017-03-11T10:51:04.726Z,8.6
2017-03-11T10:52:15.328Z,8.68
2017-03-11T10:53:25.870Z,8.7
2017-03-11T10:54:36.228Z,8.66
2017-03-11T10:55:46.647Z,8.75
2017-03-11T10:56:57.037Z,8.68
2017-03-11T10:58:07.188Z,8.7
2017-03-11T10:59:16.798Z,8.77
2017-03-11T11:00:27.116Z,8.86
2017-03-11T11:01:37.483Z,8.83
2017-03-11T11:02:46.998Z,8.92
2017-03-11T11:03:57.681Z,8.95
2017-03-11T11:05:07.574Z,8.97
2017-03-11T11:06:17.868Z,9.05
2017-03-11T11:07:27.749Z,9.12
2017-03-11T11:08:38.026Z,9.16
2017-03-11T11:09:48.616Z,9.12
2017-03-11T11:10:58.994Z,9.19
2017-03-11T11:12:09.337Z,9.23
2017-03-11T11:13:19.671Z,9.29
2017-03-11T11:14:29.607Z,9.27
2017-03-11T11:15:40.158Z,9.3
2017-03-11T11:16:50.175Z,9.26
2017-03-11T11:18:00.494Z,9.23
2017-03-11T11:19:10.440Z,9.23
2017-03-11T11:20:20.777Z,9.29
2017-03-11T11:21:31.359Z,9.29
2017-03-11T11:22:41.661Z,9.25
2017-03-11T11:23:52.063Z,9.25
2017-03-11T11:25:01.661Z,9.3
2017-03-11T11:26:11.612Z,9.3
2017-03-11T11:27:22.251Z,9.35
2017-03-11T11:28:32.630Z,9.4
2017-03-11T11:29:42.929Z,9.45
2017-03-11T11:30:53.267Z,9.4
2017-03-11T11:32:03.357Z,9.52
2017-03-11T11:33:14.044Z,9.67
2017-03-11T11:34:24.387Z,9.74
2017-03-11T11:35:34.696Z,9.78
2017-03-11T11:36:44.956Z,9.92
2017-03-11T11:37:55.279Z,10.05
2017-03-11T11:39:05.885Z,10.08
2017-03-11T11:40:15.828Z,10.03
2017-03-11T11:41:26.183Z,10.03
2017-03-11T11:42:35.665Z,10.02
2017-03-11T11:43:45.341Z,10.17
2017-03-11T11:44:56.050Z,10.18
2017-03-11T11:46:06.417Z,10.26
2017-03-11T11:47:16.721Z,10.26
2017-03-11T11:48:26.641Z,10.21
2017-03-11T11:49:36.969Z,10.24
2017-03-11T11:50:46.747Z,10.27
2017-03-11T11:51:56.321Z,10.29
2017-03-11T11:53:06.207Z,10.17
2017-03-11T11:54:16.566Z,10.19
2017-03-11T11:55:26.098Z,10.3
2017-03-11T11:56:36.940Z,10.32
2017-03-11T11:57:46.452Z,10.29
2017-03-11T11:58:55.941Z,10.24
2017-03-11T12:00:06.245Z,10.21
2017-03-11T12:01:16.543Z,10.24
2017-03-11T12:02:27.204Z,10.27
2017-03-11T12:03:37.575Z,10.1
2017-03-11T12:04:47.868Z,10.1
2017-03-11T12:05:57.868Z,10.02
2017-03-11T12:07:07.774Z,10.08
2017-03-11T12:08:18.083Z,10.02
2017-03-11T12:09:28.251Z,10.11
2017-03-11T12:10:38.531Z,9.96
2017-03-11T12:11:48.809Z,10.03
2017-03-11T12:12:59.115Z,9.95
2017-03-11T12:14:09.716Z,10
2017-03-11T12:15:19.616Z,10.02
2017-03-11T12:16:29.936Z,10.13
2017-03-11T12:17:40.267Z,10.1
2017-03-11T12:18:50.596Z,10.11
2017-03-11T12:20:00.722Z,10.18
2017-03-11T12:21:10.614Z,10.18
2017-03-11T12:22:20.622Z,10.19
2017-03-11T12:23:30.960Z,10.21
2017-03-11T12:24:40.955Z,10.18
2017-03-11T12:25:51.566Z,10.21
2017-03-11T12:27:01.897Z,10.15
2017-03-11T12:28:11.500Z,10.15
2017-03-11T12:29:21.407Z,10.22
2017-03-11T12:30:31.796Z,10.15
2017-03-11T12:31:43.479Z,10.1
2017-03-11T12:32:53.780Z,10.02
2017-03-11T12:35:07.691Z,10
2017-03-11T12:36:17.991Z,9.93
2017-03-11T12:37:28.548Z,9.98
2017-03-11T12:38:38.455Z,10.02
2017-03-11T12:39:48.415Z,9.96
2017-03-11T12:40:58.313Z,10
2017-03-11T12:42:08.230Z,9.89
2017-03-11T12:43:18.785Z,9.92
2017-03-11T12:44:29.116Z,9.89
2017-03-11T12:45:39.405Z,9.95
2017-03-11T12:46:48.882Z,9.85
2017-03-11T12:47:59.293Z,9.93
2017-03-11T12:49:09.028Z,9.98
2017-03-11T12:50:18.938Z,10.02
2017-03-11T12:51:29.491Z,10.03
2017-03-11T12:52:39.853Z,10
2017-03-11T12:53:50.201Z,10.03
2017-03-11T12:55:00.851Z,10.08
2017-03-11T12:56:11.182Z,10.03
2017-03-11T12:57:21.145Z,9.99
2017-03-11T12:58:31.092Z,10.02
2017-03-11T12:59:41.447Z,9.96
2017-03-11T13:00:52.074Z,9.84
2017-03-11T13:02:02.401Z,9.83
2017-03-11T13:03:12.768Z,9.92
2017-03-11T13:04:23.238Z,9.92
2017-03-11T13:05:33.547Z,9.91
2017-03-11T13:06:44.150Z,9.88
2017-03-11T13:07:54.493Z,9.8
2017-03-11T13:09:04.393Z,9.78
2017-03-11T13:10:14.710Z,9.59
2017-03-11T13:11:24.586Z,9.52
2017-03-11T13:12:34.339Z,9.52
2017-03-11T13:13:44.235Z,9.5
2017-03-11T13:14:54.699Z,9.56
2017-03-11T13:16:05.023Z,9.56
2017-03-11T13:17:14.940Z,9.58
2017-03-11T13:18:25.564Z,9.6
2017-03-11T13:19:35.511Z,9.73
2017-03-11T13:20:46.013Z,9.7
2017-03-11T13:21:56.361Z,9.84
2017-03-11T13:23:06.645Z,9.84
2017-03-11T13:24:17.182Z,9.91
2017-03-11T13:25:27.501Z,9.92
2017-03-11T13:26:37.393Z,9.85
2017-03-11T13:27:47.443Z,9.96
2017-03-11T13:28:57.760Z,10.02
2017-03-11T13:30:08.025Z,10
2017-03-11T13:31:18.377Z,9.99
2017-03-11T13:32:28.699Z,10.03
2017-03-11T13:33:38.321Z,9.95
2017-03-11T13:34:48.249Z,9.91
2017-03-11T13:35:58.022Z,9.91
2017-03-11T13:37:08.531Z,9.91
2017-03-11T13:38:18.820Z,9.85
2017-03-11T13:39:28.989Z,9.75
2017-03-11T13:40:38.935Z,9.71
2017-03-11T13:41:49.606Z,9.59
2017-03-11T13:42:59.925Z,9.6
2017-03-11T13:44:10.325Z,9.65
2017-03-11T13:45:20.673Z,9.58
2017-03-11T13:46:30.976Z,9.4
2017-03-11T13:47:41.207Z,9.44
2017-03-11T13:48:51.166Z,9.33
2017-03-11T13:50:01.491Z,9.35
2017-03-11T13:51:12.029Z,9.35
2017-03-11T13:52:22.329Z,9.34
2017-03-11T13:53:32.910Z,9.34
2017-03-11T13:54:42.841Z,9.33
2017-03-11T13:55:54.124Z,9.3
2017-03-11T13:57:06.020Z,9.34
2017-03-11T13:58:16.521Z,9.34
2017-03-11T13:59:27.114Z,9.38
2017-03-11T14:00:37.017Z,9.44
2017-03-11T14:01:46.912Z,9.38
2017-03-11T14:02:57.201Z,9.48
2017-03-11T14:04:07.620Z,9.56
2017-03-11T14:05:18.168Z,9.55
2017-03-11T14:06:28.547Z,9.53
2017-03-11T14:07:38.888Z,9.48
2017-03-11T14:08:48.799Z,9.38
2017-03-11T14:09:59.155Z,9.42
2017-03-11T14:11:09.370Z,9.42
2017-03-11T14:12:19.342Z,9.35
2017-03-11T14:13:29.620Z,9.34
2017-03-11T14:14:47.002Z,9.37
2017-03-11T14:16:05.624Z,9.45
2017-03-11T14:17:16.371Z,9.37
2017-03-11T14:18:26.275Z,9.42
2017-03-11T14:19:36.212Z,9.37
2017-03-11T14:20:46.162Z,9.37
2017-03-11T14:21:56.548Z,9.55
2017-03-11T14:23:07.137Z,9.41
2017-03-11T14:24:17.438Z,9.4
2017-03-11T14:25:27.752Z,9.4
2017-03-11T14:26:37.709Z,9.35
2017-03-11T14:27:48.326Z,9.44
2017-03-11T14:28:58.695Z,9.52
2017-03-11T14:30:09.037Z,9.42
2017-03-11T14:31:19.484Z,9.55
2017-03-11T14:32:33.887Z,9.55
2017-03-11T14:33:51.551Z,9.45
2017-03-11T14:35:01.938Z,9.55
2017-03-11T14:36:12.294Z,9.53
2017-03-11T14:37:22.660Z,9.38
2017-03-11T14:38:35.667Z,9.4
2017-03-11T14:39:48.720Z,9.41
2017-03-11T14:40:59.081Z,9.41
2017-03-11T14:42:09.411Z,9.44
2017-03-11T14:43:18.920Z,9.41
2017-03-11T14:44:28.884Z,9.41
2017-03-11T14:45:39.460Z,9.4
2017-03-11T14:46:49.434Z,9.34
2017-03-11T14:47:59.422Z,9.35
2017-03-11T14:49:09.358Z,9.34
2017-03-11T14:50:18.896Z,9.37
2017-03-11T14:51:29.445Z,9.3
2017-03-11T14:52:39.822Z,9.44
2017-03-11T14:53:49.840Z,9.35
2017-03-11T14:55:00.192Z,9.35
2017-03-11T14:56:10.529Z,9.44
2017-03-11T14:57:21.167Z,9.42
2017-03-11T14:58:31.472Z,9.33
2017-03-11T14:59:41.825Z,9.33
2017-03-11T15:00:51.880Z,9.34
2017-03-11T15:02:01.810Z,9.26
2017-03-11T15:03:11.948Z,9.3
2017-03-11T15:04:22.395Z,9.29
2017-03-11T15:05:32.828Z,9.23
2017-03-11T15:06:42.790Z,9.19
2017-03-11T15:07:53.209Z,9.19
2017-03-11T15:09:03.836Z,9.15
2017-03-11T15:10:14.184Z,9.08
2017-03-11T15:11:24.498Z,9.09
2017-03-11T15:12:34.829Z,9.12
2017-03-11T15:13:44.759Z,9.09
2017-03-11T15:14:55.335Z,9.04
2017-03-11T15:16:05.647Z,9.11
2017-03-11T15:17:15.616Z,9
2017-03-11T15:18:25.931Z,8.98
2017-03-11T15:19:35.510Z,9.02
2017-03-11T15:20:46.130Z,8.98
2017-03-11T15:21:56.537Z,9
2017-03-11T15:23:06.883Z,9.01
2017-03-11T15:24:17.196Z,9.01
2017-03-11T15:25:26.709Z,8.92
2017-03-11T15:26:37.258Z,8.87
2017-03-11T15:27:47.575Z,8.89
2017-03-11T15:28:57.892Z,8.8
2017-03-11T15:30:07.903Z,8.82
2017-03-11T15:31:17.845Z,8.79
2017-03-11T15:32:28.505Z,8.77
2017-03-11T15:33:38.396Z,8.58
2017-03-11T15:34:48.717Z,8.64
2017-03-11T15:35:59.067Z,8.61
2017-03-11T15:37:09.002Z,8.74
2017-03-11T15:38:19.651Z,8.58